Time;durP1;ratioP1;P1;durP2;ratioP2;P2;SDS_P1;SDS_P2;PMS_P1;PMS_P2;Temp;Humidity;BMP_temperature;BMP_pressure;BME280_temperature;BME280_humidity;BME280_pressure;Samples;Min_cycle;Max_cycle;Signal;HPM_P1;HPM_P2
2023/10/22 00:09:36;;;;;;;1999.90;999.90;;;;;;;9.80;100.00;96917.38;18615864;31;20090;-58
2023/10/22 00:19:39;;;;;;;1999.90;999.90;;;;;;;9.83;100.00;96920.28;18629237;31;20452;-58
2023/10/22 00:29:41;;;;;;;1999.90;999.90;;;;;;;9.89;100.00;96929.16;18628827;31;20076;-58
2023/10/22 00:39:44;;;;;;;1999.90;999.90;;;;;;;9.91;100.00;96929.69;18627900;31;20049;-57
2023/10/22 00:49:46;;;;;;;1999.90;999.90;;;;;;;9.93;100.00;96938.28;18627852;31;20376;-58
2023/10/22 00:59:54;;;;;;;1999.90;999.90;;;;;;;9.88;100.00;96953.75;18627160;31;20052;-58
2023/10/22 01:09:57;;;;;;;1999.90;999.90;;;;;;;9.86;100.00;96953.22;18626381;31;20089;-57
2023/10/22 01:19:59;;;;;;;1999.90;999.90;;;;;;;9.88;100.00;96951.03;18593434;31;20103;-58
2023/10/22 01:30:03;;;;;;;1999.90;999.90;;;;;;;9.63;100.00;96956.38;18625734;31;20140;-58
2023/10/22 01:40:07;;;;;;;1999.90;999.90;;;;;;;9.37;100.00;96960.31;18611113;31;20410;-58
2023/10/22 01:50:09;;;;;;;1999.90;999.90;;;;;;;9.20;100.00;96972.28;18625120;31;20106;-58
2023/10/22 02:00:13;;;;;;;1999.90;999.90;;;;;;;9.43;100.00;96984.31;18624854;31;20056;-59
2023/10/22 02:10:15;;;;;;;1999.90;999.90;;;;;;;9.39;100.00;96999.44;18604122;31;20089;-58
2023/10/22 02:20:18;;;;;;;1999.90;999.90;;;;;;;9.22;100.00;96998.97;18630439;31;20081;-58
2023/10/22 02:30:21;;;;;;;1999.90;999.90;;;;;;;9.11;100.00;97004.44;18622256;31;20420;-58
2023/10/22 02:40:23;;;;;;;1999.90;999.90;;;;;;;9.01;100.00;97019.84;18635598;31;20156;-58
2023/10/22 02:50:26;;;;;;;1999.90;999.90;;;;;;;8.72;100.00;97028.56;18635089;31;20063;-58
2023/10/22 03:00:28;;;;;;;1999.90;999.90;;;;;;;8.82;100.00;97039.31;18630781;31;20076;-58
2023/10/22 03:10:38;;;;;;;1999.90;999.90;;;;;;;8.78;100.00;97044.47;18632814;31;20087;-58
2023/10/22 03:20:41;;;;;;;1999.90;999.90;;;;;;;8.75;100.00;97047.69;18619473;31;20401;-58
2023/10/22 03:30:44;;;;;;;1999.90;999.90;;;;;;;8.59;100.00;97056.88;18632510;31;20056;-58
2023/10/22 03:40:46;;;;;;;1999.90;999.90;;;;;;;8.31;100.00;97064.44;18631875;31;20045;-58
2023/10/22 03:50:48;;;;;;;1999.90;999.90;;;;;;;8.14;100.00;97064.72;18631537;31;20057;-58
2023/10/22 04:00:54;;;;;;;1999.90;999.90;;;;;;;7.97;100.00;97076.56;18603287;31;20072;-58
2023/10/22 04:10:57;;;;;;;1999.90;999.90;;;;;;;7.88;100.00;97088.09;18630231;31;20383;-58
2023/10/22 04:20:59;;;;;;;1999.90;999.90;;;;;;;7.89;100.00;97103.16;18629699;31;20475;-58
2023/10/22 04:31:02;;;;;;;1999.90;999.90;;;;;;;7.95;100.00;97097.53;18628882;31;20071;-58
2023/10/22 04:41:10;;;;;;;1999.90;999.90;;;;;;;7.95;100.00;97096.72;18627458;31;20116;-58
2023/10/22 04:51:12;;;;;;;1999.90;999.90;;;;;;;7.78;100.00;97105.84;18621266;31;20399;-58
2023/10/22 05:01:15;;;;;;;1999.90;999.90;;;;;;;7.64;100.00;97113.59;18627280;31;20421;-58
2023/10/22 05:11:18;;;;;;;1999.90;999.90;;;;;;;7.69;100.00;97117.38;18626532;31;20092;-58
2023/10/22 05:21:21;;;;;;;1999.90;999.90;;;;;;;7.44;100.00;97133.19;18612289;31;20060;-58
2023/10/22 05:31:23;;;;;;;1999.90;999.90;;;;;;;7.35;100.00;97124.00;18611559;31;20063;-58
2023/10/22 05:41:28;;;;;;;1999.90;999.90;;;;;;;7.01;100.00;97132.41;18611097;31;20053;-58
2023/10/22 05:51:32;;;;;;;1999.90;999.90;;;;;;;6.97;100.00;97152.81;18613034;31;20352;-58
2023/10/22 06:01:38;;;;;;;1999.90;999.90;;;;;;;7.01;100.00;97170.06;18638248;31;20079;-58
2023/10/22 06:11:41;;;;;;;1999.90;999.90;;;;;;;6.90;100.00;97195.25;18637738;31;20053;-58
2023/10/22 06:21:44;;;;;;;1999.90;999.90;;;;;;;6.87;100.00;97190.41;18637050;31;20044;-58
2023/10/22 06:31:47;;;;;;;1999.90;999.90;;;;;;;6.94;100.00;97197.16;18636450;31;20455;-58
2023/10/22 06:41:50;;;;;;;1999.90;999.90;;;;;;;6.86;100.00;97221.00;18608385;31;20059;-58
2023/10/22 06:51:53;;;;;;;1999.90;999.90;;;;;;;6.86;100.00;97234.44;18620252;31;20072;-58
2023/10/22 07:01:56;;;;;;;1999.90;999.90;;;;;;;6.84;100.00;97256.22;18633896;31;20075;-58
2023/10/22 07:11:58;;;;;;;1999.90;999.90;;;;;;;6.80;100.00;97271.22;18619781;31;20071;-58
2023/10/22 07:22:01;;;;;;;1999.90;999.90;;;;;;;6.82;100.00;97268.28;18618526;31;20059;-58
2023/10/22 07:32:04;;;;;;;1999.90;999.90;;;;;;;7.07;100.00;97265.81;18631250;31;20104;-58
2023/10/22 07:42:07;;;;;;;1999.90;999.90;;;;;;;7.31;100.00;97264.63;18627065;31;20049;-58
2023/10/22 07:52:09;;;;;;;1999.90;999.90;;;;;;;7.64;100.00;97279.63;18631454;31;20048;-58
2023/10/22 08:02:12;;;;;;;1999.90;999.90;;;;;;;7.87;100.00;97289.16;18630816;31;20108;-58
2023/10/22 08:12:15;;;;;;;1999.90;999.90;;;;;;;8.21;100.00;97280.69;18615804;31;20048;-58
2023/10/22 08:22:19;;;;;;;1999.90;999.90;;;;;;;8.56;100.00;97283.78;18614695;31;20048;-58
2023/10/22 08:32:22;;;;;;;1999.90;999.90;;;;;;;8.96;100.00;97284.91;18628696;31;20155;-58
2023/10/22 08:42:26;;;;;;;1999.90;999.90;;;;;;;9.38;100.00;97304.59;18627953;31;20097;-58
2023/10/22 08:52:29;;;;;;;1999.90;999.90;;;;;;;9.96;100.00;97312.31;18627608;31;20044;-58
2023/10/22 09:02:32;;;;;;;1999.90;999.90;;;;;;;10.39;100.00;97295.69;18627545;31;20096;-58
2023/10/22 09:12:35;;;;;;;1999.90;999.90;;;;;;;10.84;100.00;97316.28;18626429;31;20458;-58
2023/10/22 09:22:38;;;;;;;1999.90;999.90;;;;;;;10.98;100.00;97310.25;18619456;31;20090;-58
2023/10/22 09:32:47;;;;;;;1999.90;999.90;;;;;;;11.22;100.00;97307.59;18610582;31;20385;-58
2023/10/22 09:42:51;;;;;;;1999.90;999.90;;;;;;;11.82;100.00;97306.53;18624381;31;20064;-58
2023/10/22 09:52:56;;;;;;;1999.90;999.90;;;;;;;11.91;100.00;97306.69;18624375;31;20051;-58
2023/10/22 10:03:02;;;;;;;1999.90;999.90;;;;;;;12.34;100.00;97298.66;18624677;31;20057;-58
2023/10/22 10:13:05;;;;;;;1999.90;999.90;;;;;;;12.16;100.00;97301.03;18609980;31;20143;-58
2023/10/22 10:23:11;;;;;;;1999.90;999.90;;;;;;;12.36;100.00;97296.44;18623987;31;20112;-58
2023/10/22 10:33:14;;;;;;;1999.90;999.90;;;;;;;12.71;100.00;97305.22;18623895;31;20068;-58
2023/10/22 10:43:19;;;;;;;1999.90;999.90;;;;;;;12.61;100.00;97297.22;18630986;31;20079;-58
2023/10/22 10:53:22;;;;;;;1999.90;999.90;;;;;;;12.71;100.00;97302.50;18635086;31;20063;-58
2023/10/22 11:03:40;;;;;;;1999.90;999.90;;;;;;;13.84;100.00;97308.88;18634472;31;20330;-58
2023/10/22 11:13:43;;;;;;;1999.90;999.90;;;;;;;13.87;100.00;97315.63;18626744;31;20151;-58
2023/10/22 11:23:46;;;;;;;1999.90;999.90;;;;;;;13.40;100.00;97315.59;18618783;31;20047;-58
2023/10/22 11:33:49;;;;;;;1999.90;999.90;;;;;;;13.55;100.00;97328.09;18618280;31;20099;-58
2023/10/22 11:43:52;;;;;;;1999.90;999.90;;;;;;;13.95;100.00;97305.94;18617907;31;20121;-58
2023/10/22 11:53:59;;;;;;;1999.90;999.90;;;;;;;14.66;100.00;97314.62;18631407;31;20040;-58
2023/10/22 12:04:03;;;;;;;1999.90;999.90;;;;;;;14.67;100.00;97307.25;18624078;31;20069;-58
2023/10/22 12:14:06;;;;;;;1999.90;999.90;;;;;;;14.86;100.00;97307.09;18615719;31;20082;-59
2023/10/22 12:24:09;;;;;;;1999.90;999.90;;;;;;;15.11;100.00;97302.97;18629373;31;20056;-59
2023/10/22 12:34:28;;;;;;;1999.90;999.90;;;;;;;14.75;100.00;97311.97;18628530;31;20458;-59
2023/10/22 12:44:31;;;;;;;;;;;;;;;14.84;100.00;97299.25;18601255;31;20040;-59
2023/10/22 12:54:35;;;;;;;1999.90;999.90;;;;;;;14.60;100.00;97299.47;18628001;31;19979;-59
2023/10/22 13:04:47;;;;;;;1999.90;999.90;;;;;;;15.07;100.00;97299.25;18612156;31;20064;-58
2023/10/22 13:14:50;;;;;;;1999.90;999.90;;;;;;;14.69;100.00;97296.84;18626694;31;20064;-58
2023/10/22 13:24:54;;;;;;;1999.90;999.90;;;;;;;14.55;100.00;97292.22;18626325;31;20108;-58
2023/10/22 13:34:57;;;;;;;1999.90;999.90;;;;;;;14.26;100.00;97299.91;18625341;31;20048;-59
2023/10/22 13:45:00;;;;;;;1999.90;999.90;;;;;;;14.02;100.00;97290.06;18624640;31;20049;-58
2023/10/22 13:55:03;;;;;;;1999.90;999.90;;;;;;;13.75;100.00;97294.34;18610710;31;20056;-59
2023/10/22 14:05:12;;;;;;;1999.90;999.90;;;;;;;13.72;100.00;97303.13;18624645;31;20444;-59
2023/10/22 14:15:18;;;;;;;1999.90;999.90;;;;;;;13.74;100.00;97314.47;18628921;31;20048;-58
2023/10/22 14:25:21;;;;;;;1999.90;999.90;;;;;;;13.53;100.00;97324.91;18637209;31;20056;-58
2023/10/22 14:35:24;;;;;;;1999.90;999.90;;;;;;;13.73;100.00;97342.75;18635967;31;20116;-59
2023/10/22 14:45:27;;;;;;;1999.90;999.90;;;;;;;13.45;100.00;97331.00;18631705;31;20053;-58
2023/10/22 14:55:30;;;;;;;1999.90;999.90;;;;;;;13.26;100.00;97323.66;18617805;31;20068;-58
2023/10/22 15:05:34;;;;;;;;;;;;;;;13.06;100.00;97330.22;18634673;31;20476;-59
2023/10/22 15:15:38;;;;;;;1999.90;999.90;;;;;;;12.94;100.00;97332.59;18634427;31;20300;-58
2023/10/22 15:25:45;;;;;;;;;;;;;;;12.73;100.00;97338.31;18633216;31;20053;-58
2023/10/22 15:35:58;;;;;;;1999.90;999.90;;;;;;;12.70;100.00;97345.09;18632735;31;20323;-58
2023/10/22 15:46:01;;;;;;;1999.90;999.90;;;;;;;12.78;100.00;97346.34;18632026;31;20100;-58
2023/10/22 15:56:06;;;;;;;1999.90;999.90;;;;;;;12.61;100.00;97351.47;18631414;31;20071;-58
2023/10/22 16:06:09;;;;;;;1999.90;999.90;;;;;;;12.49;100.00;97365.44;18630946;31;20105;-58
2023/10/22 16:16:16;;;;;;;1999.90;999.90;;;;;;;12.35;100.00;97370.75;18615812;31;20096;-58
2023/10/22 16:26:19;;;;;;;1999.90;999.90;;;;;;;12.07;100.00;97367.00;18629512;31;20384;-58
2023/10/22 16:36:22;;;;;;;1999.90;999.90;;;;;;;11.77;100.00;97374.28;18628362;31;20064;-58
2023/10/22 16:46:25;;;;;;;1999.90;999.90;;;;;;;11.36;100.00;97380.88;18627709;31;20048;-58
2023/10/22 16:56:28;;;;;;;1999.90;999.90;;;;;;;11.33;100.00;97386.84;18627919;31;20060;-58
2023/10/22 17:06:30;;;;;;;1999.90;999.90;;;;;;;11.21;100.00;97391.78;18627248;31;20053;-58
2023/10/22 17:16:33;;;;;;;1999.90;999.90;;;;;;;11.08;100.00;97399.44;18626513;31;20074;-58
2023/10/22 17:26:36;;;;;;;1999.90;999.90;;;;;;;10.84;100.00;97396.63;18626100;31;20376;-58
2023/10/22 17:36:40;;;;;;;1999.90;999.90;;;;;;;10.70;100.00;97419.94;18625577;31;20064;-58
2023/10/22 17:46:43;;;;;;;1999.90;999.90;;;;;;;10.53;100.00;97436.50;18626647;31;20478;-58
2023/10/22 17:56:46;;;;;;;1999.90;999.90;;;;;;;10.40;100.00;97433.28;18638815;31;20074;-58
2023/10/22 18:06:51;;;;;;;1999.90;999.90;;;;;;;10.03;100.00;97423.59;18624627;31;20394;-58
2023/10/22 18:16:55;;;;;;;1999.90;999.90;;;;;;;9.95;100.00;97430.34;18637716;31;20440;-58
2023/10/22 18:26:58;;;;;;;1999.90;999.90;;;;;;;9.82;100.00;97436.31;18630278;31;20063;-58
2023/10/22 18:37:02;;;;;;;1999.90;999.90;;;;;;;9.80;100.00;97433.88;18636714;31;20087;-58
2023/10/22 18:47:05;;;;;;;1999.90;999.90;;;;;;;9.71;100.00;97440.87;18635846;31;20096;-58
2023/10/22 18:57:08;;;;;;;1999.90;999.90;;;;;;;9.62;100.00;97437.09;18621000;31;20048;-58
2023/10/22 19:07:11;;;;;;;1999.90;999.90;;;;;;;9.50;100.00;97434.69;18633884;31;20116;-58
2023/10/22 19:17:14;;;;;;;1999.90;999.90;;;;;;;9.41;100.00;97431.69;18619941;31;20105;-58
2023/10/22 19:27:17;;;;;;;1999.90;999.90;;;;;;;9.39;100.00;97446.56;18633376;31;20053;-58
2023/10/22 19:37:19;;;;;;;1999.90;999.90;;;;;;;9.28;100.00;97459.22;18632749;31;20080;-58
2023/10/22 19:47:22;;;;;;;1999.90;999.90;;;;;;;9.29;100.00;97467.03;18631839;31;20044;-58
2023/10/22 19:57:26;;;;;;;1999.90;999.90;;;;;;;9.31;100.00;97486.44;18631415;31;20094;-58
2023/10/22 20:07:28;;;;;;;1999.90;999.90;;;;;;;9.16;100.00;97481.81;18631169;31;20075;-58
2023/10/22 20:17:31;;;;;;;1999.90;999.90;;;;;;;9.27;100.00;97493.44;18623549;31;20049;-58
2023/10/22 20:27:34;;;;;;;1999.90;999.90;;;;;;;9.24;100.00;97499.38;18629511;31;20107;-58
2023/10/22 20:37:37;;;;;;;1999.90;999.90;;;;;;;9.16;100.00;97508.78;18628786;31;20361;-58
2023/10/22 20:47:40;;;;;;;1999.90;999.90;;;;;;;8.99;100.00;97509.00;18627917;31;20100;-58
2023/10/22 20:57:42;;;;;;;1999.90;999.90;;;;;;;9.06;100.00;97508.78;18613353;31;20053;-58
2023/10/22 21:07:45;;;;;;;1999.90;999.90;;;;;;;9.02;100.00;97496.06;18627116;31;20064;-58
2023/10/22 21:17:48;;;;;;;1999.90;999.90;;;;;;;8.93;100.00;97499.25;18626610;31;20402;-58
2023/10/22 21:27:51;;;;;;;1999.90;999.90;;;;;;;8.88;100.00;97490.34;18625806;31;20377;-58
2023/10/22 21:37:54;;;;;;;1999.90;999.90;;;;;;;8.82;100.00;97490.34;18625763;31;20114;-58
2023/10/22 21:47:56;;;;;;;1999.90;999.90;;;;;;;8.80;100.00;97468.22;18625292;31;20112;-58
2023/10/22 21:57:58;;;;;;;1999.90;999.90;;;;;;;8.64;100.00;97480.00;18610955;31;20116;-58
2023/10/22 22:08:01;;;;;;;1999.90;999.90;;;;;;;8.52;100.00;97472.13;18624630;31;20045;-58
2023/10/22 22:18:03;;;;;;;1999.90;999.90;;;;;;;8.38;100.00;97468.25;18610269;31;20100;-58
2023/10/22 22:28:06;;;;;;;1999.90;999.90;;;;;;;8.25;100.00;97467.62;18624296;31;20056;-58
2023/10/22 22:38:08;;;;;;;1999.90;999.90;;;;;;;8.12;100.00;97460.81;18630262;31;20052;-58
2023/10/22 22:48:10;;;;;;;1999.90;999.90;;;;;;;8.01;100.00;97452.94;18635728;31;20075;-58
2023/10/22 22:58:13;;;;;;;1999.90;999.90;;;;;;;7.98;100.00;97462.34;18628472;31;20365;-58
2023/10/22 23:08:15;;;;;;;1999.90;999.90;;;;;;;7.94;100.00;97475.50;18634874;31;20052;-58
2023/10/22 23:18:18;;;;;;;1999.90;999.90;;;;;;;7.82;100.00;97474.06;18633899;31;20071;-58
2023/10/22 23:28:21;;;;;;;1999.90;999.90;;;;;;;7.67;100.00;97462.06;18633540;31;20056;-58
2023/10/22 23:38:23;;;;;;;1999.90;999.90;;;;;;;7.71;100.00;97463.19;18618501;31;20097;-58
2023/10/22 23:48:25;;;;;;;1999.90;999.90;;;;;;;7.63;100.00;97480.63;18631748;31;20064;-58
2023/10/22 23:58:28;;;;;;;1999.90;999.90;;;;;;;7.59;100.00;97476.00;18617349;31;20044;-58
